Time;durP1;ratioP1;P1;durP2;ratioP2;P2;SDS_P1;SDS_P2;PMS_P1;PMS_P2;Temp;Humidity;BMP_temperature;BMP_pressure;BME280_temperature;BME280_humidity;BME280_pressure;Samples;Min_cycle;Max_cycle;Signal;HPM_P1;HPM_P2
2021/10/25 00:01:32;;;;;;;19.63;12.65;;;8.40;99.90;;;;;;5068506;28;25049;-74
2021/10/25 00:03:59;;;;;;;18.70;12.63;;;8.50;99.90;;;;;;5050534;28;25069;-75
2021/10/25 00:06:25;;;;;;;16.67;11.95;;;8.50;99.90;;;;;;5066256;28;25136;-75
2021/10/25 00:08:50;;;;;;;17.38;11.98;;;8.70;99.90;;;;;;5051230;28;25063;-74
2021/10/25 00:11:16;;;;;;;15.38;10.95;;;8.70;99.90;;;;;;5056977;28;25064;-73
2021/10/25 00:13:42;;;;;;;15.90;11.50;;;8.70;99.90;;;;;;5060929;28;25169;-74
2021/10/25 00:16:08;;;;;;;18.77;12.27;;;8.70;99.90;;;;;;5060219;28;25073;-74
2021/10/25 00:18:35;;;;;;;18.52;11.82;;;8.70;99.90;;;;;;5060670;28;25085;-75
2021/10/25 00:21:02;;;;;;;14.38;11.02;;;8.80;99.90;;;;;;5058619;28;25076;-73
2021/10/25 00:23:28;;;;;;;18.00;11.20;;;8.80;99.90;;;;;;5054606;28;25073;-76
2021/10/25 00:25:54;;;;;;;17.23;11.25;;;8.70;99.90;;;;;;5052684;28;25077;-74
2021/10/25 00:28:19;;;;;;;13.10;11.50;;;8.80;99.90;;;;;;5069144;28;25091;-74
2021/10/25 00:30:45;;;;;;;19.50;11.30;;;8.80;99.90;;;;;;5046527;28;25089;-75
2021/10/25 00:33:10;;;;;;;16.15;12.15;;;8.80;99.90;;;;;;5064477;28;25073;-75
2021/10/25 00:35:36;;;;;;;18.85;12.45;;;8.80;99.90;;;;;;5061817;28;25056;-74
2021/10/25 00:38:03;;;;;;;15.85;11.20;;;8.90;99.90;;;;;;5069595;28;25060;-74
2021/10/25 00:40:29;;;;;;;18.45;10.52;;;8.90;99.90;;;;;;5044136;28;25101;-72
2021/10/25 00:42:54;;;;;;;18.13;11.52;;;8.90;99.90;;;;;;5066478;28;25063;-74
2021/10/25 00:45:20;;;;;;;17.40;10.50;;;9.00;99.90;;;;;;5061359;28;25157;-74
2021/10/25 00:47:46;;;;;;;14.38;10.73;;;9.00;99.90;;;;;;5063342;28;25062;-75
2021/10/25 00:50:12;;;;;;;14.00;10.27;;;9.10;99.90;;;;;;5070135;28;25058;-75
2021/10/25 00:52:39;;;;;;;16.27;11.00;;;9.00;99.90;;;;;;5061866;28;25081;-74
2021/10/25 00:55:07;;;;;;;13.00;11.00;;;9.10;99.90;;;;;;5066899;28;25148;-73
2021/10/25 00:57:33;;;;;;;13.93;9.40;;;9.20;99.90;;;;;;5070880;28;25062;-74
2021/10/25 01:00:01;;;;;;;17.85;11.07;;;9.10;99.90;;;;;;5066956;28;25069;-73
2021/10/25 01:02:26;;;;;;;16.08;10.80;;;9.10;99.90;;;;;;5069321;28;25131;-73
2021/10/25 01:04:52;;;;;;;19.65;11.18;;;9.10;99.90;;;;;;5062904;28;25062;-74
2021/10/25 01:07:18;;;;;;;18.52;10.23;;;9.10;99.90;;;;;;5063929;28;25150;-75
2021/10/25 01:09:44;;;;;;;18.80;11.45;;;9.10;99.90;;;;;;5068860;28;25065;-73
2021/10/25 01:12:10;;;;;;;15.85;10.32;;;9.10;99.90;;;;;;5066374;28;26186;-75
2021/10/25 01:14:36;;;;;;;18.52;10.02;;;9.20;99.90;;;;;;5068469;28;25063;-74
2021/10/25 01:17:02;;;;;;;15.73;10.85;;;9.20;99.90;;;;;;5064237;28;25074;-74
2021/10/25 01:19:28;;;;;;;16.15;10.55;;;9.20;99.90;;;;;;5050105;28;25064;-74
2021/10/25 01:21:53;;;;;;;16.20;10.70;;;9.20;99.90;;;;;;5068653;28;25138;-74
2021/10/25 01:24:19;;;;;;;17.17;11.65;;;9.20;99.90;;;;;;5062418;28;25072;-73
2021/10/25 01:26:45;;;;;;;16.42;11.63;;;9.30;99.90;;;;;;5059483;28;25093;-74
2021/10/25 01:29:10;;;;;;;14.63;10.60;;;9.30;99.90;;;;;;5067824;28;25054;-75
2021/10/25 01:31:36;;;;;;;17.65;10.85;;;9.30;99.90;;;;;;5069820;28;25077;-75
2021/10/25 01:34:02;;;;;;;17.00;10.10;;;9.30;99.90;;;;;;5066218;28;25147;-74
2021/10/25 01:36:28;;;;;;;15.98;10.35;;;9.30;99.90;;;;;;5045059;28;25055;-71
2021/10/25 01:38:54;;;;;;;21.48;11.57;;;9.40;99.90;;;;;;5066974;28;25154;-74
2021/10/25 01:41:22;;;;;;;18.08;12.05;;;9.50;99.90;;;;;;5059289;28;25165;-72
2021/10/25 01:43:48;;;;;;;17.83;11.98;;;9.40;99.90;;;;;;5065759;28;25066;-74
2021/10/25 01:46:13;;;;;;;16.38;11.55;;;9.50;99.90;;;;;;5040667;28;25070;-74
2021/10/25 01:48:39;;;;;;;18.13;10.10;;;9.50;99.90;;;;;;5064340;28;25074;-75
2021/10/25 01:51:06;;;;;;;15.13;11.40;;;9.50;99.90;;;;;;5065649;28;25079;-74
2021/10/25 01:53:34;;;;;;;16.67;11.60;;;9.50;99.90;;;;;;5077900;28;25095;-74
2021/10/25 01:56:01;;;;;;;18.63;11.07;;;9.50;99.90;;;;;;5078003;28;25150;-73
2021/10/25 01:58:28;;;;;;;17.30;11.05;;;9.50;99.90;;;;;;5071507;28;25063;-75
2021/10/25 02:00:54;;;;;;;19.38;11.55;;;9.60;99.90;;;;;;5061706;28;25055;-73
2021/10/25 02:03:19;;;;;;;24.40;11.50;;;9.60;99.90;;;;;;5067054;28;25102;-73
2021/10/25 02:05:45;;;;;;;19.95;12.07;;;9.60;99.90;;;;;;5065024;28;25053;-73
2021/10/25 02:08:11;;;;;;;16.55;11.18;;;9.60;99.90;;;;;;5078080;28;25054;-73
2021/10/25 02:10:37;;;;;;;19.88;11.95;;;9.60;99.90;;;;;;5058741;28;25152;-73
2021/10/25 02:13:03;;;;;;;16.25;11.38;;;9.60;99.90;;;;;;5068004;28;25059;-75
2021/10/25 02:15:29;;;;;;;15.23;10.80;;;9.70;99.90;;;;;;5064738;28;25069;-74
2021/10/25 02:17:55;;;;;;;19.27;10.93;;;9.70;99.90;;;;;;5075904;28;25041;-73
2021/10/25 02:20:22;;;;;;;18.38;10.75;;;9.70;99.90;;;;;;5082291;28;25055;-73
2021/10/25 02:22:48;;;;;;;16.13;10.98;;;9.70;99.90;;;;;;5078752;28;25084;-74
2021/10/25 02:25:14;;;;;;;21.65;11.50;;;9.70;99.90;;;;;;5042386;28;25067;-74
2021/10/25 02:27:40;;;;;;;19.00;11.27;;;9.70;99.90;;;;;;5044018;28;25081;-72
2021/10/25 02:30:06;;;;;;;18.60;11.32;;;9.80;99.90;;;;;;5058892;28;25074;-75
2021/10/25 02:32:32;;;;;;;17.98;11.55;;;9.80;99.90;;;;;;5061807;28;25111;-73
2021/10/25 02:34:57;;;;;;;19.10;9.40;;;9.80;99.90;;;;;;5065713;28;25101;-74
2021/10/25 02:37:23;;;;;;;23.17;11.50;;;9.80;99.90;;;;;;5064252;28;25061;-77
2021/10/25 02:39:49;;;;;;;21.02;11.80;;;9.90;99.90;;;;;;5058021;28;25078;-74
2021/10/25 02:42:15;;;;;;;20.15;11.35;;;10.00;99.90;;;;;;5066733;28;25065;-74
2021/10/25 02:44:42;;;;;;;17.58;10.93;;;9.90;99.90;;;;;;5060330;28;25164;-74
2021/10/25 02:47:08;;;;;;;20.45;11.93;;;9.90;99.90;;;;;;5061129;28;25062;-73
2021/10/25 02:49:33;;;;;;;19.33;12.00;;;9.90;99.90;;;;;;5073951;28;25059;-73
2021/10/25 02:51:59;;;;;;;15.07;11.73;;;9.90;99.90;;;;;;5068314;28;25053;-74
2021/10/25 02:54:25;;;;;;;21.33;12.95;;;10.00;99.90;;;;;;5068748;28;25088;-74
2021/10/25 02:56:53;;;;;;;21.00;12.15;;;10.00;99.90;;;;;;5067264;28;25055;-74
2021/10/25 02:59:20;;;;;;;17.92;12.10;;;9.90;99.90;;;;;;5060359;28;25092;-75
2021/10/25 03:01:46;;;;;;;19.25;12.02;;;10.00;99.90;;;;;;5055310;28;25074;-74
2021/10/25 03:04:12;;;;;;;19.55;12.80;;;10.00;99.90;;;;;;5070614;28;25127;-73
2021/10/25 03:06:38;;;;;;;15.30;11.77;;;10.00;99.90;;;;;;5067193;28;25087;-74
2021/10/25 03:09:07;;;;;;;18.33;12.45;;;10.00;99.90;;;;;;5054376;28;25068;-73
2021/10/25 03:11:34;;;;;;;18.75;12.25;;;9.90;99.90;;;;;;5071258;28;25101;-74
2021/10/25 03:14:00;;;;;;;19.02;12.15;;;10.00;99.90;;;;;;5067604;28;25077;-73
2021/10/25 03:16:26;;;;;;;17.85;12.13;;;10.00;99.90;;;;;;5044918;28;25055;-74
2021/10/25 03:18:52;;;;;;;19.17;11.90;;;10.00;99.90;;;;;;5047763;28;25066;-74
2021/10/25 03:21:18;;;;;;;26.58;13.20;;;10.00;99.90;;;;;;5047245;28;25055;-74
2021/10/25 03:23:47;;;;;;;16.50;12.15;;;10.00;99.90;;;;;;5053835;28;25069;-72
2021/10/25 03:26:13;;;;;;;15.10;11.85;;;10.00;99.90;;;;;;5050996;28;25147;-73
2021/10/25 03:28:38;;;;;;;16.80;10.90;;;10.00;99.90;;;;;;5050976;28;25073;-73
2021/10/25 03:31:05;;;;;;;14.88;11.65;;;10.10;99.90;;;;;;5066918;28;24818;-73
2021/10/25 03:33:33;;;;;;;16.85;11.55;;;10.10;99.90;;;;;;5067049;28;25132;-73
2021/10/25 03:35:59;;;;;;;17.27;11.38;;;10.10;99.90;;;;;;5050186;28;25097;-75
2021/10/25 03:38:25;;;;;;;16.63;12.20;;;10.10;99.90;;;;;;5070366;28;25069;-74
2021/10/25 03:40:51;;;;;;;15.50;10.70;;;10.00;99.90;;;;;;5064732;28;25081;-72
2021/10/25 03:43:18;;;;;;;17.27;10.60;;;10.00;99.90;;;;;;5055485;28;25068;-73
2021/10/25 03:45:50;;;;;;;16.77;11.50;;;10.10;99.90;;;;;;5064916;28;25099;-73
2021/10/25 03:48:28;;;;;;;21.50;12.27;;;10.00;99.90;;;;;;5066527;28;25066;-73
2021/10/25 03:50:54;;;;;;;13.57;10.90;;;10.10;99.90;;;;;;5064681;28;25083;-72
2021/10/25 03:53:31;;;;;;;14.80;10.02;;;10.10;99.90;;;;;;5063870;28;25106;-74
2021/10/25 03:56:06;;;;;;;18.65;12.18;;;10.10;99.90;;;;;;5047054;28;25079;-73
2021/10/25 04:01:50;;;;;;;16.65;9.90;;;10.10;99.90;;;;;;5035896;28;25061;-74
2021/10/25 04:28:28;;;;;;;30.48;18.35;;;10.00;99.90;;;;;;5087112;28;25045;-76
2021/10/25 04:31:07;;;;;;;28.70;18.42;;;10.00;99.90;;;;;;5094821;28;25059;-71
2021/10/25 04:33:39;;;;;;;30.00;20.58;;;9.90;99.90;;;;;;5097637;28;25063;-75
2021/10/25 04:36:05;;;;;;;;;;;9.90;99.90;;;;;;5098004;28;25075;-74
2021/10/25 04:38:31;;;;;;;38.50;20.73;;;10.00;99.90;;;;;;5074217;28;25090;-74
2021/10/25 04:40:58;;;;;;;36.42;20.95;;;9.90;99.90;;;;;;5064669;28;25063;-73
2021/10/25 04:43:24;;;;;;;32.30;20.17;;;9.80;99.90;;;;;;5070599;28;25058;-74
2021/10/25 04:45:50;;;;;;;26.13;18.55;;;9.80;99.90;;;;;;5093571;28;25093;-74
2021/10/25 04:48:17;;;;;;;33.05;19.77;;;9.90;99.90;;;;;;5069716;28;25075;-75
2021/10/25 04:50:43;;;;;;;28.13;17.92;;;9.90;99.90;;;;;;5068610;28;25122;-73
2021/10/25 04:53:10;;;;;;;28.08;18.88;;;10.00;99.90;;;;;;5075948;28;25147;-75
2021/10/25 04:55:36;;;;;;;33.22;17.75;;;10.00;99.90;;;;;;5086312;28;25050;-75
2021/10/25 04:58:02;;;;;;;30.08;20.98;;;9.90;99.90;;;;;;5082273;28;25051;-73
2021/10/25 05:00:27;;;;;;;27.17;19.05;;;9.90;99.90;;;;;;5083819;28;25100;-74
2021/10/25 05:02:55;;;;;;;28.70;17.65;;;9.90;99.90;;;;;;5087309;28;25069;-75
2021/10/25 05:05:21;;;;;;;33.55;18.55;;;9.80;99.90;;;;;;5086312;28;25101;-74
2021/10/25 05:07:46;;;;;;;33.55;20.27;;;9.80;99.90;;;;;;5081716;28;25059;-74
2021/10/25 05:10:13;;;;;;;34.95;21.02;;;9.70;99.90;;;;;;5076316;28;25054;-75
2021/10/25 05:12:39;;;;;;;43.17;22.60;;;9.80;99.90;;;;;;5068480;28;25054;-73
2021/10/25 05:15:05;;;;;;;32.95;19.02;;;9.70;99.90;;;;;;5068331;28;25073;-74
2021/10/25 05:17:32;;;;;;;30.88;20.30;;;9.70;99.90;;;;;;5070144;28;25070;-75
2021/10/25 05:19:57;;;;;;;24.60;17.70;;;9.80;99.90;;;;;;5067292;28;25132;-75
2021/10/25 05:22:23;;;;;;;31.77;18.85;;;9.80;99.90;;;;;;5065569;28;25056;-75
2021/10/25 05:24:49;;;;;;;30.73;18.42;;;9.70;99.90;;;;;;5072596;28;25076;-75
2021/10/25 05:27:18;;;;;;;36.13;18.83;;;9.80;99.90;;;;;;5063669;28;25126;-74
2021/10/25 05:29:44;;;;;;;31.23;18.40;;;9.80;99.90;;;;;;5070128;28;25064;-75
2021/10/25 05:32:10;;;;;;;27.38;17.48;;;9.80;99.90;;;;;;5073017;28;25067;-74
2021/10/25 05:34:36;;;;;;;28.40;18.30;;;9.80;99.90;;;;;;5065539;28;25150;-76
2021/10/25 05:37:02;;;;;;;32.40;19.77;;;9.80;99.90;;;;;;5068514;28;25152;-74
2021/10/25 05:39:28;;;;;;;32.92;17.70;;;9.80;99.90;;;;;;5068764;28;25108;-73
2021/10/25 05:41:54;;;;;;;30.67;19.05;;;9.80;99.90;;;;;;5070295;28;25101;-76
2021/10/25 05:44:21;;;;;;;33.70;18.20;;;9.80;99.90;;;;;;5069565;28;25074;-75
2021/10/25 05:46:47;;;;;;;35.17;19.63;;;9.80;99.90;;;;;;5068720;28;25052;-75
2021/10/25 05:49:13;;;;;;;24.63;15.32;;;9.90;99.90;;;;;;5069099;28;25101;-75
2021/10/25 05:51:40;;;;;;;28.85;16.60;;;9.90;99.90;;;;;;5068204;28;25087;-76
2021/10/25 05:54:07;;;;;;;32.58;17.98;;;10.00;99.90;;;;;;5066454;28;25178;-74
2021/10/25 05:56:33;;;;;;;27.30;16.20;;;9.90;99.90;;;;;;5065436;28;25063;-75
2021/10/25 05:58:59;;;;;;;29.17;16.23;;;9.90;99.90;;;;;;5068425;28;25058;-75
2021/10/25 06:01:34;;;;;;;33.50;17.58;;;10.00;99.90;;;;;;5069023;28;25076;-74
2021/10/25 06:04:05;;;;;;;28.02;16.88;;;10.00;99.90;;;;;;5069176;28;25114;-75
2021/10/25 06:06:31;;;;;;;28.50;18.90;;;10.00;99.90;;;;;;5067969;28;24763;-75
2021/10/25 06:08:56;;;;;;;31.08;19.20;;;10.00;99.90;;;;;;5070317;28;25182;-73
2021/10/25 06:11:23;;;;;;;27.27;17.67;;;10.00;99.90;;;;;;5072743;28;25046;-76
2021/10/25 06:13:49;;;;;;;36.10;19.58;;;10.00;99.90;;;;;;5073304;28;25080;-74
2021/10/25 06:16:17;;;;;;;26.17;17.90;;;10.00;99.90;;;;;;5069871;28;25075;-74
2021/10/25 06:18:44;;;;;;;28.02;19.02;;;10.00;99.90;;;;;;5065607;28;25184;-74
2021/10/25 06:21:10;;;;;;;35.95;20.98;;;10.10;99.90;;;;;;5069619;28;25091;-73
2021/10/25 06:23:36;;;;;;;37.63;21.77;;;10.10;99.90;;;;;;5073060;28;25160;-74
2021/10/25 06:26:03;;;;;;;46.72;24.77;;;10.00;99.90;;;;;;5073553;28;25047;-76
2021/10/25 06:28:29;;;;;;;37.63;22.92;;;10.00;99.90;;;;;;5061770;28;25065;-75
2021/10/25 06:31:09;;;;;;;41.08;27.08;;;10.10;99.90;;;;;;5054984;28;25108;-75
2021/10/25 06:33:46;;;;;;;35.78;23.77;;;10.00;99.90;;;;;;5065830;28;25070;-75
2021/10/25 06:36:17;;;;;;;42.50;26.00;;;10.10;99.90;;;;;;5059047;28;25094;-75
2021/10/25 06:41:09;;;;;;;52.30;29.50;;;10.20;99.90;;;;;;5086588;28;25112;-74
2021/10/25 06:43:35;;;;;;;52.58;33.08;;;10.20;99.90;;;;;;5079031;28;25075;-73
2021/10/25 06:46:01;;;;;;;53.22;33.45;;;10.20;99.90;;;;;;5071453;28;25058;-75
2021/10/25 06:48:28;;;;;;;56.70;33.83;;;10.20;99.90;;;;;;5078760;28;25060;-74
2021/10/25 06:50:55;;;;;;;43.00;29.15;;;10.20;99.90;;;;;;5070784;28;25078;-73
2021/10/25 06:53:21;;;;;;;63.78;39.55;;;10.20;99.90;;;;;;5064973;28;25072;-75
2021/10/25 06:55:47;;;;;;;60.83;37.05;;;10.20;99.90;;;;;;5064234;28;25062;-75
2021/10/25 06:58:13;;;;;;;59.60;39.38;;;10.20;99.90;;;;;;5067607;28;25092;-75
2021/10/25 07:00:39;;;;;;;74.00;44.63;;;10.30;99.90;;;;;;5081576;28;25175;-74
2021/10/25 07:03:05;;;;;;;67.65;44.13;;;10.30;99.90;;;;;;5080102;28;25167;-75
2021/10/25 07:05:35;;;;;;;70.00;44.55;;;10.20;99.90;;;;;;5077349;28;25069;-74
2021/10/25 07:08:01;;;;;;;79.10;48.92;;;10.20;99.90;;;;;;5074520;28;25119;-74
2021/10/25 07:10:28;;;;;;;78.85;48.67;;;10.30;99.90;;;;;;5075985;28;25086;-75
2021/10/25 07:12:56;;;;;;;72.55;47.65;;;10.20;99.90;;;;;;5077898;28;25058;-75
2021/10/25 07:15:22;;;;;;;75.32;45.58;;;10.20;99.90;;;;;;5084590;28;25061;-76
2021/10/25 07:18:09;;;;;;;75.45;46.10;;;10.20;99.90;;;;;;5079118;28;25069;-75
2021/10/25 07:59:42;;;;;;;64.85;44.47;;;10.20;99.90;;;;;;5075411;28;25078;-76
2021/10/25 08:02:09;;;;;;;43.10;27.38;;;10.20;99.90;;;;;;5077845;28;25103;-75
2021/10/25 08:07:27;;;;;;;29.98;19.98;;;10.20;99.90;;;;;;5076594;28;25047;-74
2021/10/25 08:09:56;;;;;;;36.30;22.90;;;10.10;99.90;;;;;;5061750;28;25087;-76
2021/10/25 08:12:28;;;;;;;38.28;22.67;;;10.10;99.90;;;;;;5074775;28;25093;-78
2021/10/25 08:15:16;;;;;;;44.38;24.60;;;10.20;99.90;;;;;;5078994;28;25073;-74
2021/10/25 08:17:48;;;;;;;40.22;22.23;;;10.20;99.90;;;;;;5057570;28;25127;-74
2021/10/25 08:20:14;;;;;;;42.97;24.00;;;10.20;99.90;;;;;;5077542;28;25049;-76
2021/10/25 08:22:41;;;;;;;42.65;23.10;;;10.20;99.90;;;;;;5064695;28;25065;-73
2021/10/25 08:25:09;;;;;;;39.08;24.05;;;10.30;99.90;;;;;;5072854;28;25074;-74
2021/10/25 08:27:40;;;;;;;38.60;23.60;;;10.30;99.90;;;;;;5077713;28;25081;-75
2021/10/25 08:30:06;;;;;;;44.55;24.90;;;10.30;99.90;;;;;;5063244;28;25057;-75
2021/10/25 08:40:40;;;;;;;40.03;21.70;;;10.30;99.90;;;;;;5075866;28;25055;-74
2021/10/25 08:43:08;;;;;;;30.15;18.90;;;10.40;99.90;;;;;;5061218;28;25067;-75
2021/10/25 08:45:35;;;;;;;38.28;20.52;;;10.30;99.90;;;;;;5067932;28;25073;-74
2021/10/25 08:48:03;;;;;;;29.88;21.15;;;10.40;99.90;;;;;;5072405;28;25105;-75
2021/10/25 08:50:33;;;;;;;34.55;21.45;;;10.40;99.90;;;;;;5071195;28;25060;-74
2021/10/25 08:53:01;;;;;;;37.90;23.33;;;10.40;99.90;;;;;;5068015;28;25133;-74
2021/10/25 08:55:26;;;;;;;37.28;23.23;;;10.30;99.90;;;;;;5071538;28;25067;-75
2021/10/25 08:57:54;;;;;;;40.85;23.88;;;10.30;99.90;;;;;;5056195;28;25144;-76
2021/10/25 09:00:38;;;;;;;35.50;22.15;;;10.40;99.90;;;;;;5074293;28;25053;-77
2021/10/25 09:03:06;;;;;;;38.38;24.77;;;10.40;99.90;;;;;;5081507;28;25055;-75
2021/10/25 09:05:32;;;;;;;36.50;24.10;;;10.50;99.90;;;;;;5078782;28;25065;-75
2021/10/25 09:08:04;;;;;;;37.17;25.13;;;10.50;99.90;;;;;;5077299;28;25103;-74
2021/10/25 09:10:39;;;;;;;42.92;24.58;;;10.50;99.90;;;;;;5077841;28;25066;-73
2021/10/25 09:13:08;;;;;;;35.95;24.58;;;10.50;99.90;;;;;;5071533;28;25057;-73
2021/10/25 09:15:39;;;;;;;39.35;25.85;;;10.50;99.90;;;;;;5054776;28;25108;-74
2021/10/25 09:18:12;;;;;;;39.63;24.02;;;10.50;99.90;;;;;;5072827;28;25049;-73
2021/10/25 09:20:49;;;;;;;38.30;25.88;;;10.50;99.90;;;;;;5056149;28;25055;-73
2021/10/25 09:23:18;;;;;;;41.78;25.67;;;10.60;99.90;;;;;;5072198;28;25068;-74
2021/10/25 09:25:49;;;;;;;40.72;23.83;;;10.60;99.90;;;;;;5081700;28;25057;-75
2021/10/25 09:28:28;;;;;;;36.72;23.27;;;10.60;99.90;;;;;;5076702;28;25075;-75
2021/10/25 09:31:01;;;;;;;36.50;23.58;;;10.70;99.90;;;;;;5059746;28;25082;-74
2021/10/25 09:33:39;;;;;;;30.65;21.30;;;10.80;99.90;;;;;;5077381;28;25064;-75
2021/10/25 09:36:14;;;;;;;30.17;21.25;;;10.90;99.90;;;;;;5052465;28;25057;-74
2021/10/25 09:49:35;;;;;;;31.25;22.48;;;10.90;99.90;;;;;;5093340;28;25065;-73
2021/10/25 09:52:03;;;;;;;31.63;20.92;;;11.00;99.90;;;;;;5092933;28;25056;-74
2021/10/25 09:54:34;;;;;;;31.35;20.75;;;11.00;99.90;;;;;;5086762;28;25061;-74
2021/10/25 09:59:52;;;;;;;30.17;21.95;;;11.20;99.90;;;;;;5074463;28;25149;-74
2021/10/25 10:02:20;;;;;;;28.10;21.20;;;11.30;99.90;;;;;;5070745;28;25085;-74
2021/10/25 10:04:58;;;;;;;35.33;21.98;;;11.30;99.90;;;;;;5072197;28;25057;-75
2021/10/25 10:07:27;;;;;;;32.65;22.92;;;11.40;99.90;;;;;;5055236;28;25095;-74
2021/10/25 10:09:54;;;;;;;35.92;23.25;;;11.40;99.90;;;;;;5055640;28;25078;-74
2021/10/25 10:12:23;;;;;;;26.45;20.13;;;11.60;99.90;;;;;;5075714;28;25056;-75
2021/10/25 10:14:53;;;;;;;29.30;22.40;;;11.80;99.90;;;;;;5079198;28;25055;-76
2021/10/25 10:17:32;;;;;;;26.73;19.60;;;11.80;99.90;;;;;;5060647;28;25070;-76
2021/10/25 10:20:04;;;;;;;33.30;22.38;;;11.90;99.90;;;;;;5057755;28;25081;-75
2021/10/25 10:22:32;;;;;;;32.30;20.83;;;12.00;99.90;;;;;;5076605;28;25112;-75
2021/10/25 10:25:09;;;;;;;27.67;22.02;;;12.10;99.90;;;;;;5090342;28;24927;-77
2021/10/25 10:27:37;;;;;;;31.20;24.95;;;12.20;99.90;;;;;;5073957;28;25055;-74
2021/10/25 10:30:10;;;;;;;33.15;22.15;;;12.30;99.90;;;;;;5084457;28;25085;-75
2021/10/25 10:32:36;;;;;;;32.90;24.17;;;12.40;99.90;;;;;;5082622;28;25066;-74
2021/10/25 10:35:09;;;;;;;33.35;22.48;;;12.40;99.90;;;;;;5065609;28;25083;-74
2021/10/25 10:37:38;;;;;;;;;;;12.40;99.90;;;;;;5075858;28;25069;-75
2021/10/25 10:40:12;;;;;;;28.10;21.63;;;12.30;99.90;;;;;;5074529;28;24159;-74
2021/10/25 10:42:43;;;;;;;33.80;25.08;;;12.30;99.90;;;;;;5074539;28;25148;-75
2021/10/25 10:45:11;;;;;;;32.83;25.02;;;12.40;99.90;;;;;;5075308;28;25079;-75
2021/10/25 10:47:41;;;;;;;25.52;21.38;;;12.50;99.90;;;;;;5074385;28;25077;-74
2021/10/25 10:50:33;;;;;;;36.83;25.02;;;12.50;99.90;;;;;;5077059;28;25096;-75
2021/10/25 10:53:09;;;;;;;30.98;21.40;;;12.60;99.90;;;;;;5072990;28;25158;-74
2021/10/25 10:55:42;;;;;;;30.80;24.85;;;12.60;99.90;;;;;;5075584;28;25060;-76
2021/10/25 11:00:52;;;;;;;31.58;22.42;;;12.70;99.90;;;;;;5074123;28;25131;-75
2021/10/25 11:03:22;;;;;;;30.67;25.48;;;12.70;99.90;;;;;;5055322;28;25093;-75
2021/10/25 11:06:09;;;;;;;27.95;20.70;;;12.60;99.90;;;;;;5074599;28;25047;-76
2021/10/25 11:08:41;;;;;;;27.25;20.27;;;12.60;99.90;;;;;;5052348;28;25073;-78
2021/10/25 11:11:08;;;;;;;28.95;24.10;;;12.60;99.90;;;;;;5073256;28;25108;-79
2021/10/25 11:13:41;;;;;;;35.80;22.65;;;12.60;99.90;;;;;;5069046;28;25143;-77
2021/10/25 11:18:44;;;;;;;41.85;29.05;;;12.80;99.90;;;;;;5074858;28;25045;-78
2021/10/25 11:21:16;;;;;;;28.80;22.50;;;12.90;99.90;;;;;;5075418;28;25083;-76
2021/10/25 11:23:57;;;;;;;30.25;20.08;;;12.90;99.90;;;;;;5080922;28;25088;-75
2021/10/25 11:26:28;;;;;;;26.50;21.92;;;12.70;99.90;;;;;;5085990;28;25062;-76
2021/10/25 11:28:58;;;;;;;21.77;19.20;;;12.60;99.90;;;;;;5083275;28;25095;-76
2021/10/25 11:31:27;;;;;;;25.05;20.77;;;12.60;99.90;;;;;;5068592;28;25161;-75
2021/10/25 11:33:53;;;;;;;23.20;19.13;;;12.70;99.90;;;;;;5069647;28;25081;-75
2021/10/25 11:36:21;;;;;;;25.38;18.70;;;12.60;99.90;;;;;;5058154;28;25075;-77
2021/10/25 11:38:47;;;;;;;24.85;19.25;;;12.60;99.90;;;;;;5073190;28;25063;-74
2021/10/25 11:41:12;;;;;;;24.48;18.63;;;12.70;99.90;;;;;;5065683;28;25078;-77
2021/10/25 11:43:38;;;;;;;18.73;16.70;;;12.80;99.90;;;;;;5074254;28;25086;-76
2021/10/25 11:46:18;;;;;;;23.45;18.67;;;12.90;99.90;;;;;;5066573;28;25052;-77
2021/10/25 11:48:58;;;;;;;25.20;19.50;;;13.10;99.90;;;;;;5076725;28;25052;-78
2021/10/25 11:51:26;;;;;;;22.02;17.83;;;13.20;99.90;;;;;;5072910;28;25041;-77
2021/10/25 11:53:58;;;;;;;23.73;18.10;;;13.30;99.90;;;;;;5052042;28;25067;-77
2021/10/25 11:56:26;;;;;;;22.10;17.70;;;13.30;99.90;;;;;;5072324;28;25063;-77
2021/10/25 11:58:56;;;;;;;24.45;18.13;;;13.40;99.90;;;;;;5058062;28;25092;-76
2021/10/25 12:01:25;;;;;;;21.35;17.63;;;13.40;99.90;;;;;;5055045;28;25065;-77
2021/10/25 12:03:50;;;;;;;26.60;19.00;;;13.50;99.90;;;;;;5073147;28;25134;-76
2021/10/25 12:06:18;;;;;;;25.30;19.73;;;13.50;99.90;;;;;;5070035;28;25102;-79
2021/10/25 12:09:06;;;;;;;24.10;19.75;;;13.60;99.90;;;;;;5075700;28;25125;-76
2021/10/25 12:11:52;;;;;;;28.00;21.10;;;13.70;99.90;;;;;;5071151;28;25150;-76
2021/10/25 12:14:25;;;;;;;23.90;20.80;;;13.60;99.90;;;;;;5060969;28;25069;-79
2021/10/25 12:16:51;;;;;;;23.90;21.33;;;13.60;99.90;;;;;;5063717;28;25073;-78
2021/10/25 12:19:18;;;;;;;30.20;21.60;;;13.50;99.90;;;;;;5072558;28;25139;-77
2021/10/25 12:21:44;;;;;;;30.67;19.55;;;13.50;99.90;;;;;;5070176;28;25152;-77
2021/10/25 12:24:14;;;;;;;28.55;21.50;;;13.60;99.90;;;;;;5081071;28;25079;-79
2021/10/25 12:26:42;;;;;;;29.02;20.23;;;13.70;99.90;;;;;;5079638;28;25131;-78
2021/10/25 12:29:38;;;;;;;25.40;22.67;;;13.60;99.90;;;;;;5079080;28;25076;-78
2021/10/25 12:32:08;;;;;;;26.00;22.10;;;13.60;99.90;;;;;;5076514;28;25079;-78
2021/10/25 12:34:51;;;;;;;32.38;22.27;;;13.70;99.90;;;;;;5062111;28;25070;-76
2021/10/25 12:37:19;;;;;;;26.85;21.77;;;13.60;99.90;;;;;;5079003;28;25056;-76
2021/10/25 12:39:45;;;;;;;29.20;24.00;;;13.70;99.90;;;;;;5060023;28;25053;-79
2021/10/25 12:42:11;;;;;;;28.20;25.00;;;13.60;99.90;;;;;;5081245;28;25056;-77
2021/10/25 12:44:41;;;;;;;32.72;25.48;;;13.50;99.90;;;;;;5083564;28;25158;-76
2021/10/25 12:47:16;;;;;;;29.08;24.45;;;13.40;99.90;;;;;;5082548;28;25198;-81
2021/10/25 12:49:58;;;;;;;35.17;26.10;;;13.40;99.90;;;;;;5074495;28;25089;-78
2021/10/25 12:52:29;;;;;;;33.58;27.52;;;13.30;99.90;;;;;;5072685;28;25141;-78
2021/10/25 12:55:02;;;;;;;31.23;26.25;;;13.30;99.90;;;;;;5076589;28;25096;-78
2021/10/25 12:57:33;;;;;;;31.63;27.58;;;13.30;99.90;;;;;;5076065;28;25051;-76
2021/10/25 13:00:19;;;;;;;37.03;28.45;;;13.30;99.90;;;;;;5059374;28;25136;-76
2021/10/25 13:02:52;;;;;;;37.13;27.48;;;13.30;99.90;;;;;;5080127;28;25078;-77
2021/10/25 13:05:31;;;;;;;33.17;26.58;;;13.30;99.90;;;;;;5074598;28;25050;-77
2021/10/25 13:07:59;;;;;;;32.45;25.33;;;13.30;99.90;;;;;;5048055;28;25053;-76
2021/10/25 13:10:36;;;;;;;34.78;26.95;;;13.40;99.90;;;;;;5075907;28;25062;-77
2021/10/25 13:13:04;;;;;;;35.63;29.40;;;13.50;99.90;;;;;;5055474;28;25051;-79
2021/10/25 13:15:30;;;;;;;36.88;26.95;;;13.60;99.90;;;;;;5056288;28;25133;-77
2021/10/25 13:17:58;;;;;;;33.67;26.67;;;13.50;99.90;;;;;;5080271;28;25145;-75
2021/10/25 13:20:26;;;;;;;29.85;24.30;;;13.60;99.90;;;;;;5061608;28;25093;-76
2021/10/25 13:22:57;;;;;;;31.65;26.80;;;13.70;99.90;;;;;;5086734;28;25082;-76
2021/10/25 13:25:25;;;;;;;31.85;26.45;;;13.80;99.90;;;;;;5082563;28;25086;-75
2021/10/25 13:27:54;;;;;;;34.50;25.40;;;13.80;99.90;;;;;;5064669;28;25056;-76
2021/10/25 13:30:23;;;;;;;30.55;24.20;;;13.70;99.90;;;;;;5063404;28;25059;-77
2021/10/25 13:32:49;;;;;;;29.73;23.45;;;13.70;99.90;;;;;;5081389;28;25075;-77
2021/10/25 13:35:15;;;;;;;26.85;21.75;;;13.70;99.90;;;;;;5059735;28;25056;-76
2021/10/25 13:37:45;;;;;;;27.10;21.95;;;13.60;99.90;;;;;;5076450;28;25062;-75
2021/10/25 13:40:13;;;;;;;29.38;22.08;;;13.70;99.90;;;;;;5078175;28;25118;-76
2021/10/25 13:42:39;;;;;;;28.52;22.95;;;13.70;99.90;;;;;;5078021;28;25059;-75
2021/10/25 13:45:06;;;;;;;27.70;22.58;;;13.70;99.90;;;;;;5079148;28;25058;-75
2021/10/25 13:47:31;;;;;;;26.58;22.30;;;13.60;99.90;;;;;;5061718;28;25061;-75
2021/10/25 13:49:58;;;;;;;29.23;23.98;;;13.60;99.90;;;;;;5078281;28;25097;-73
2021/10/25 13:52:25;;;;;;;31.40;23.95;;;13.50;99.90;;;;;;5074695;28;25074;-75
2021/10/25 13:54:51;;;;;;;25.60;22.48;;;13.50;99.90;;;;;;5074125;28;25073;-74
2021/10/25 13:57:25;;;;;;;26.33;21.23;;;13.50;99.90;;;;;;5077107;28;25099;-74
2021/10/25 13:59:51;;;;;;;30.08;23.40;;;13.60;99.90;;;;;;5080278;28;25073;-75
2021/10/25 14:02:17;;;;;;;29.48;23.45;;;13.70;99.90;;;;;;5063520;28;25074;-74
2021/10/25 14:04:52;;;;;;;31.95;25.88;;;13.80;99.90;;;;;;5083014;28;25058;-76
2021/10/25 14:07:21;;;;;;;33.55;28.38;;;13.80;99.90;;;;;;5079753;28;25094;-76
2021/10/25 14:10:01;;;;;;;35.72;30.25;;;13.70;99.90;;;;;;5077861;28;25098;-75
2021/10/25 14:12:28;;;;;;;33.00;27.98;;;13.70;99.90;;;;;;5080608;28;25066;-73
2021/10/25 14:15:18;;;;;;;41.63;30.40;;;13.60;99.90;;;;;;5076972;28;25059;-76
2021/10/25 14:17:51;;;;;;;38.70;32.30;;;13.70;99.90;;;;;;5076653;28;25066;-77